createdAt,value
2022-10-26T00:00:31.461Z,2.47
2022-10-26T00:01:34.346Z,3.90
2022-10-26T00:02:37.772Z,2.95
2022-10-26T00:03:41.966Z,3.10
2022-10-26T00:04:44.306Z,2.80
2022-10-26T00:05:47.082Z,2.50
2022-10-26T00:06:48.894Z,2.40
2022-10-26T00:07:52.064Z,2.25
2022-10-26T00:08:55.556Z,2.95
2022-10-26T00:09:58.283Z,2.70
2022-10-26T00:11:00.399Z,3.13
2022-10-26T00:12:04.865Z,2.45
2022-10-26T00:13:10.184Z,3.05
2022-10-26T00:14:13.081Z,2.45
2022-10-26T00:15:15.186Z,2.20
2022-10-26T00:16:20.830Z,2.75
2022-10-26T00:17:22.610Z,2.70
2022-10-26T00:18:27.197Z,2.20
2022-10-26T00:19:29.014Z,2.60
2022-10-26T00:20:34.009Z,2.83
2022-10-26T00:21:35.886Z,2.20
2022-10-26T00:22:38.831Z,2.70
2022-10-26T00:23:40.661Z,2.40
2022-10-26T00:24:43.543Z,2.60
2022-10-26T00:25:45.470Z,2.05
2022-10-26T00:26:48.645Z,2.30
2022-10-26T00:27:50.804Z,2.80
2022-10-26T00:28:55.014Z,2.67
2022-10-26T00:29:56.858Z,2.70
2022-10-26T00:31:02.476Z,2.67
2022-10-26T00:32:04.381Z,2.58
2022-10-26T00:33:07.196Z,2.25
2022-10-26T00:34:11.053Z,2.83
2022-10-26T00:35:23.042Z,2.75
2022-10-26T00:36:27.583Z,2.33
2022-10-26T00:37:29.372Z,2.38
2022-10-26T00:38:32.407Z,2.40
2022-10-26T00:39:34.513Z,2.20
2022-10-26T00:40:37.318Z,2.35
2022-10-26T00:41:40.804Z,2.45
2022-10-26T00:42:42.600Z,2.53
2022-10-26T00:43:45.483Z,2.60
2022-10-26T00:44:58.708Z,2.78
2022-10-26T00:46:04.439Z,2.20
2022-10-26T00:47:06.499Z,2.92
2022-10-26T00:48:15.550Z,2.85
2022-10-26T00:49:20.699Z,2.80
2022-10-26T00:50:28.533Z,2.45
2022-10-26T00:51:34.594Z,2.72
2022-10-26T00:52:37.445Z,2.03
2022-10-26T00:53:40.679Z,3.10
2022-10-26T00:54:43.395Z,2.55
2022-10-26T00:55:49.662Z,2.88
2022-10-26T00:56:54.863Z,2.60
2022-10-26T00:57:57.729Z,1.80
2022-10-26T00:59:04.079Z,2.40
2022-10-26T01:00:07.967Z,2.47
2022-10-26T01:01:11.404Z,2.65
2022-10-26T01:02:13.624Z,2.38
2022-10-26T01:03:17.026Z,2.65
2022-10-26T01:04:20.512Z,2.25
2022-10-26T01:05:23.329Z,3.03
2022-10-26T01:06:25.127Z,2.60
2022-10-26T01:07:28.827Z,2.53
2022-10-26T01:08:30.949Z,2.58
2022-10-26T01:09:35.259Z,2.35
2022-10-26T01:10:40.183Z,2.50
2022-10-26T01:11:43.212Z,2.53
2022-10-26T01:12:45.787Z,2.15
2022-10-26T01:13:52.065Z,2.17
2022-10-26T01:14:53.961Z,2.28
2022-10-26T01:16:18.302Z,2.60
2022-10-26T01:17:35.237Z,2.42
2022-10-26T01:18:46.285Z,1.80
2022-10-26T01:20:27.675Z,2.60
2022-10-26T01:21:46.432Z,2.20
2022-10-26T01:22:54.139Z,2.58
2022-10-26T01:24:16.984Z,2.25
2022-10-26T01:25:40.043Z,2.22
2022-10-26T01:27:03.426Z,2.38
2022-10-26T01:28:14.465Z,2.53
2022-10-26T01:29:50.759Z,2.47
2022-10-26T01:30:57.989Z,2.17
2022-10-26T01:32:09.666Z,2.17
2022-10-26T01:33:28.658Z,2.63
2022-10-26T01:34:36.244Z,2.22
2022-10-26T01:35:47.713Z,2.03
2022-10-26T01:36:55.733Z,2.78
2022-10-26T01:38:04.416Z,2.50
2022-10-26T01:39:15.229Z,1.95
2022-10-26T01:40:22.958Z,1.95
2022-10-26T01:41:32.210Z,2.30
2022-10-26T01:42:37.885Z,2.50
2022-10-26T01:43:45.667Z,2.22
2022-10-26T01:44:52.863Z,2.03
2022-10-26T01:45:58.267Z,2.00
2022-10-26T01:47:03.261Z,2.30
2022-10-26T01:48:06.468Z,2.40
2022-10-26T01:49:12.174Z,2.10
2022-10-26T01:50:14.406Z,2.50
2022-10-26T01:51:17.868Z,2.38
2022-10-26T01:52:20.319Z,2.50
2022-10-26T01:53:23.258Z,1.90
2022-10-26T01:54:25.100Z,2.63
2022-10-26T01:55:45.146Z,2.13
2022-10-26T01:56:52.876Z,2.25
2022-10-26T01:58:06.721Z,2.60
2022-10-26T01:59:31.601Z,2.63
2022-10-26T02:00:40.307Z,2.50
2022-10-26T02:02:16.026Z,2.53
2022-10-26T02:03:26.749Z,2.03
2022-10-26T02:04:39.586Z,2.50
2022-10-26T02:05:53.663Z,2.40
2022-10-26T02:07:02.897Z,2.33
2022-10-26T02:08:20.057Z,2.33
2022-10-26T02:09:32.600Z,2.05
2022-10-26T02:10:46.658Z,2.55
2022-10-26T02:11:52.751Z,2.47
2022-10-26T02:13:03.493Z,2.30
2022-10-26T02:15:25.751Z,2.55
2022-10-26T02:16:39.451Z,2.28
2022-10-26T02:17:49.055Z,2.20
2022-10-26T02:19:00.778Z,2.22
2022-10-26T02:20:05.723Z,2.50
2022-10-26T02:21:14.072Z,2.50
2022-10-26T02:22:19.575Z,2.15
2022-10-26T02:23:24.774Z,2.42
2022-10-26T02:24:28.059Z,2.30
2022-10-26T02:25:33.779Z,2.20
2022-10-26T02:26:36.922Z,2.35
2022-10-26T02:27:44.582Z,3.00
2022-10-26T02:28:50.160Z,2.40
2022-10-26T02:29:55.437Z,3.15
2022-10-26T02:31:00.444Z,2.50
2022-10-26T02:32:06.908Z,2.00
2022-10-26T02:33:12.762Z,2.85
2022-10-26T02:34:20.309Z,3.42
2022-10-26T02:35:27.596Z,2.40
2022-10-26T02:36:34.134Z,2.13
2022-10-26T02:37:37.859Z,2.45
2022-10-26T02:38:42.672Z,2.65
2022-10-26T02:39:47.094Z,2.13
2022-10-26T02:40:52.526Z,2.58
2022-10-26T02:41:55.889Z,3.20
2022-10-26T02:43:03.884Z,2.20
2022-10-26T02:44:12.651Z,2.63
2022-10-26T02:45:24.021Z,2.88
2022-10-26T02:46:28.243Z,2.80
2022-10-26T02:47:31.196Z,2.63
2022-10-26T02:48:34.912Z,2.40
2022-10-26T02:49:38.198Z,2.40
2022-10-26T02:50:51.080Z,2.72
2022-10-26T02:52:00.843Z,2.72
2022-10-26T02:53:11.892Z,2.55
2022-10-26T02:54:20.526Z,2.20
2022-10-26T02:55:27.144Z,2.67
2022-10-26T02:56:35.195Z,2.38
2022-10-26T02:57:39.852Z,2.22
2022-10-26T02:58:45.948Z,2.10
2022-10-26T02:59:48.059Z,2.88
2022-10-26T03:00:52.252Z,2.10
2022-10-26T03:01:54.960Z,2.30
2022-10-26T03:02:59.988Z,1.90
2022-10-26T03:04:05.285Z,2.70
2022-10-26T03:05:13.350Z,2.50
2022-10-26T03:06:21.684Z,2.10
2022-10-26T03:07:25.445Z,2.30
2022-10-26T03:09:35.131Z,3.30
2022-10-26T03:10:41.147Z,2.38
2022-10-26T03:11:43.899Z,2.10
2022-10-26T03:12:46.147Z,2.60
2022-10-26T03:13:49.042Z,1.95
2022-10-26T03:14:51.078Z,2.35
2022-10-26T03:15:56.475Z,2.72
2022-10-26T03:17:00.034Z,2.70
2022-10-26T03:18:03.971Z,2.92
2022-10-26T03:19:07.518Z,2.60
2022-10-26T03:20:11.444Z,2.40
2022-10-26T03:21:13.215Z,2.53
2022-10-26T03:22:15.981Z,2.20
2022-10-26T03:23:17.821Z,2.20
2022-10-26T03:24:20.636Z,1.92
2022-10-26T03:25:22.455Z,2.58
2022-10-26T03:26:25.237Z,2.10
2022-10-26T03:27:27.095Z,2.10
2022-10-26T03:28:29.869Z,2.10
2022-10-26T03:29:31.728Z,2.63
2022-10-26T03:30:34.536Z,2.22
2022-10-26T03:31:36.381Z,2.15
2022-10-26T03:32:39.569Z,1.80
2022-10-26T03:33:41.345Z,2.60
2022-10-26T03:34:45.481Z,2.60
2022-10-26T03:35:47.285Z,2.67
2022-10-26T03:36:50.233Z,2.15
2022-10-26T03:37:52.643Z,2.45
2022-10-26T03:38:55.441Z,2.58
2022-10-26T03:39:57.179Z,1.95
2022-10-26T03:41:00.768Z,2.42
2022-10-26T03:42:02.906Z,2.20
2022-10-26T03:43:05.662Z,2.28
2022-10-26T03:44:07.673Z,2.42
2022-10-26T03:45:11.492Z,2.15
2022-10-26T03:46:13.235Z,2.28
2022-10-26T03:47:16.033Z,1.83
2022-10-26T03:48:17.812Z,2.10
2022-10-26T03:49:20.575Z,1.85
2022-10-26T03:50:23.741Z,2.05
2022-10-26T03:51:26.464Z,3.00
2022-10-26T03:52:28.192Z,2.13
2022-10-26T03:53:30.951Z,2.63
2022-10-26T03:54:32.727Z,2.15
2022-10-26T03:55:35.622Z,2.63
2022-10-26T03:56:37.463Z,2.05
2022-10-26T03:57:43.534Z,1.90
2022-10-26T03:58:45.341Z,2.45
2022-10-26T03:59:48.094Z,2.40
2022-10-26T04:00:50.129Z,2.00
2022-10-26T04:01:56.743Z,2.10
2022-10-26T04:03:02.101Z,2.13
2022-10-26T04:04:03.973Z,1.73
2022-10-26T04:05:07.994Z,1.90
2022-10-26T04:06:12.202Z,2.30
2022-10-26T04:07:14.019Z,2.40
2022-10-26T04:08:16.874Z,2.28
2022-10-26T04:09:18.672Z,2.05
2022-10-26T04:10:21.625Z,2.25
2022-10-26T04:11:24.525Z,2.00
2022-10-26T04:12:26.413Z,2.00
2022-10-26T04:13:29.367Z,1.55
2022-10-26T04:14:31.236Z,1.92
2022-10-26T04:15:34.861Z,2.70
2022-10-26T04:16:36.603Z,2.08
2022-10-26T04:17:39.420Z,2.10
2022-10-26T04:18:41.216Z,2.40
2022-10-26T04:19:43.955Z,2.25
2022-10-26T04:20:45.839Z,2.50
2022-10-26T04:21:51.983Z,2.50
2022-10-26T04:22:57.722Z,2.55
2022-10-26T04:24:00.596Z,2.15
2022-10-26T04:25:05.161Z,2.30
2022-10-26T04:26:08.201Z,2.63
2022-10-26T04:27:10.085Z,2.53
2022-10-26T04:28:14.475Z,2.42
2022-10-26T04:29:16.306Z,2.78
2022-10-26T04:30:19.343Z,2.60
2022-10-26T04:31:21.078Z,2.53
2022-10-26T04:32:24.003Z,2.38
2022-10-26T04:33:25.866Z,2.83
2022-10-26T04:34:28.602Z,2.10
2022-10-26T04:35:30.730Z,2.47
2022-10-26T04:36:34.686Z,2.83
2022-10-26T04:37:37.864Z,1.95
2022-10-26T04:38:40.674Z,2.28
2022-10-26T04:39:42.496Z,1.85
2022-10-26T04:40:45.249Z,1.75
2022-10-26T04:41:47.134Z,1.70
2022-10-26T04:42:50.331Z,1.88
2022-10-26T04:43:53.278Z,1.73
2022-10-26T04:44:55.112Z,2.03
2022-10-26T04:45:58.243Z,2.38
2022-10-26T04:47:00.052Z,3.03
2022-10-26T04:48:06.402Z,2.65
2022-10-26T04:49:08.177Z,2.10
2022-10-26T04:50:12.453Z,2.90
2022-10-26T04:51:14.237Z,1.80
2022-10-26T04:52:17.023Z,2.13
2022-10-26T04:53:20.152Z,2.15
2022-10-26T04:54:22.898Z,2.20
2022-10-26T04:55:25.240Z,2.20
2022-10-26T04:56:29.408Z,2.00
2022-10-26T04:57:31.164Z,2.47
2022-10-26T04:58:34.023Z,1.90
2022-10-26T04:59:35.822Z,2.30
2022-10-26T05:00:38.522Z,2.30
2022-10-26T05:01:40.483Z,1.70
2022-10-26T05:02:43.490Z,2.40
2022-10-26T05:03:49.426Z,2.10
2022-10-26T05:04:52.312Z,2.40
2022-10-26T05:05:54.189Z,1.70
2022-10-26T05:06:56.975Z,2.17
2022-10-26T05:07:58.873Z,2.20
2022-10-26T05:09:03.338Z,2.45
2022-10-26T05:10:06.141Z,2.90
2022-10-26T05:11:08.956Z,1.77
2022-10-26T05:12:10.748Z,1.80
2022-10-26T05:13:13.624Z,1.92
2022-10-26T05:14:15.484Z,1.60
2022-10-26T05:15:19.987Z,1.80
2022-10-26T05:16:22.976Z,2.00
2022-10-26T05:17:25.955Z,2.00
2022-10-26T05:18:28.070Z,2.17
2022-10-26T05:19:30.961Z,1.80
2022-10-26T05:20:34.373Z,1.83
2022-10-26T05:21:37.531Z,2.95
2022-10-26T05:22:39.506Z,2.20
2022-10-26T05:23:42.326Z,2.45
2022-10-26T05:24:46.461Z,1.90
2022-10-26T05:25:50.823Z,1.83
2022-10-26T05:26:52.827Z,2.10
2022-10-26T05:27:58.657Z,2.15
2022-10-26T05:29:02.119Z,1.70
2022-10-26T05:30:04.468Z,2.40
2022-10-26T05:31:07.239Z,13.27
2022-10-26T05:32:09.043Z,17.92
2022-10-26T05:33:13.120Z,20.23
2022-10-26T05:34:15.894Z,9.70
2022-10-26T05:35:17.713Z,8.38
2022-10-26T05:36:21.115Z,8.55
2022-10-26T05:37:23.002Z,10.35
2022-10-26T05:39:28.547Z,6.18
2022-10-26T05:40:32.643Z,18.90
2022-10-26T05:41:34.437Z,15.38
2022-10-26T05:42:37.198Z,6.25
2022-10-26T05:43:39.236Z,4.85
2022-10-26T05:44:42.095Z,6.65
2022-10-26T05:45:44.003Z,8.40
2022-10-26T05:47:57.386Z,4.93
2022-10-26T05:49:03.894Z,6.30
2022-10-26T05:50:06.177Z,4.35
2022-10-26T05:51:08.981Z,4.75
2022-10-26T05:52:10.723Z,4.53
2022-10-26T05:53:14.565Z,4.72
2022-10-26T05:54:17.322Z,4.97
2022-10-26T05:55:19.945Z,4.10
2022-10-26T05:56:36.131Z,4.63
2022-10-26T05:57:38.857Z,4.88
2022-10-26T05:58:42.048Z,3.92
2022-10-26T05:59:45.363Z,3.55
2022-10-26T06:01:03.407Z,3.95
2022-10-26T06:02:15.952Z,4.78
2022-10-26T06:03:33.171Z,3.90
2022-10-26T06:04:39.238Z,3.70
2022-10-26T06:05:50.719Z,4.28
2022-10-26T06:06:57.390Z,3.55
2022-10-26T06:07:59.765Z,3.13
2022-10-26T06:09:03.246Z,3.50
2022-10-26T06:10:06.182Z,3.67
2022-10-26T06:11:09.913Z,3.17
2022-10-26T06:12:18.511Z,3.10
2022-10-26T06:13:22.351Z,3.20
2022-10-26T06:14:25.737Z,3.55
2022-10-26T06:15:29.950Z,5.25
2022-10-26T06:16:45.487Z,4.72
2022-10-26T06:17:58.503Z,5.05
2022-10-26T06:19:12.175Z,4.43
2022-10-26T06:20:30.106Z,3.85
2022-10-26T06:21:49.172Z,3.85
2022-10-26T06:23:03.463Z,3.85
2022-10-26T06:24:13.484Z,4.38
2022-10-26T06:25:27.664Z,3.45
2022-10-26T06:26:41.949Z,3.75
2022-10-26T06:27:52.311Z,3.80
2022-10-26T06:29:04.750Z,3.70
2022-10-26T06:30:10.114Z,3.85
2022-10-26T06:31:14.537Z,4.35
2022-10-26T06:32:17.575Z,3.53
2022-10-26T06:33:30.198Z,3.80
2022-10-26T06:34:36.704Z,3.85
2022-10-26T06:35:49.593Z,3.70
2022-10-26T06:38:05.871Z,4.30
2022-10-26T06:39:11.929Z,3.05
2022-10-26T06:40:16.577Z,3.30
2022-10-26T06:41:20.116Z,3.70
2022-10-26T06:42:23.721Z,2.75
2022-10-26T06:43:29.470Z,3.15
2022-10-26T06:44:33.451Z,3.13
2022-10-26T06:45:36.724Z,3.53
2022-10-26T06:46:45.027Z,3.17
2022-10-26T06:47:54.278Z,4.25
2022-10-26T06:49:04.944Z,3.35
2022-10-26T06:50:18.601Z,3.40
2022-10-26T06:51:21.345Z,3.00
2022-10-26T06:52:31.187Z,3.03
2022-10-26T06:54:49.593Z,3.35
2022-10-26T06:55:53.557Z,3.50
2022-10-26T06:56:56.594Z,3.70
2022-10-26T06:57:59.386Z,3.42
2022-10-26T06:59:08.747Z,3.55
2022-10-26T07:00:19.799Z,3.00
2022-10-26T07:01:21.755Z,3.17
2022-10-26T07:02:25.275Z,3.55
2022-10-26T07:03:28.154Z,2.90
2022-10-26T07:04:31.018Z,2.60
2022-10-26T07:05:33.694Z,2.42
2022-10-26T07:06:38.415Z,3.10
2022-10-26T07:07:43.424Z,2.85
2022-10-26T07:08:46.296Z,3.00
2022-10-26T07:09:49.682Z,2.70
2022-10-26T07:10:52.438Z,2.60
2022-10-26T07:11:55.167Z,2.33
2022-10-26T07:12:58.026Z,2.55
2022-10-26T07:14:00.936Z,2.45
2022-10-26T07:15:05.644Z,2.33
2022-10-26T07:16:09.077Z,3.33
2022-10-26T07:17:11.343Z,2.92
2022-10-26T07:18:14.285Z,2.70
2022-10-26T07:19:16.061Z,2.95
2022-10-26T07:20:21.202Z,2.70
2022-10-26T07:21:24.066Z,2.40
2022-10-26T07:22:25.904Z,2.33
2022-10-26T07:24:36.478Z,2.38
2022-10-26T07:25:40.206Z,1.88
2022-10-26T07:26:43.193Z,1.88
2022-10-26T07:27:46.543Z,2.38
2022-10-26T07:28:49.357Z,1.95
2022-10-26T07:29:52.147Z,2.50
2022-10-26T07:30:56.198Z,1.75
2022-10-26T07:31:59.215Z,2.15
2022-10-26T07:33:02.340Z,2.05
2022-10-26T07:34:05.216Z,2.20
2022-10-26T07:35:07.655Z,1.90
2022-10-26T07:36:10.950Z,2.03
2022-10-26T07:37:12.815Z,2.13
2022-10-26T07:38:15.612Z,2.20
2022-10-26T07:39:17.828Z,2.47
2022-10-26T07:41:28.379Z,1.80
2022-10-26T07:42:30.170Z,2.22
2022-10-26T07:43:33.136Z,2.33
2022-10-26T07:44:35.919Z,1.95
2022-10-26T07:45:37.764Z,2.55
2022-10-26T07:46:42.104Z,2.20
2022-10-26T07:47:44.060Z,1.40
2022-10-26T07:48:47.149Z,2.05
2022-10-26T07:49:48.949Z,1.73
2022-10-26T07:50:51.876Z,1.98
2022-10-26T07:51:54.737Z,1.40
2022-10-26T07:52:58.691Z,1.20
2022-10-26T07:54:02.238Z,1.67
2022-10-26T07:55:04.654Z,1.17
2022-10-26T07:56:08.548Z,1.13
2022-10-26T07:57:10.326Z,1.42
2022-10-26T07:58:13.325Z,1.50
2022-10-26T07:59:17.079Z,1.80
2022-10-26T08:00:20.094Z,2.00
2022-10-26T08:01:23.381Z,1.25
2022-10-26T08:02:26.775Z,2.10
2022-10-26T08:03:29.623Z,1.70
2022-10-26T08:04:31.488Z,1.23
2022-10-26T08:05:34.275Z,1.27
2022-10-26T08:06:36.338Z,1.40
2022-10-26T08:07:43.797Z,1.45
2022-10-26T08:08:47.648Z,1.20
2022-10-26T08:09:50.658Z,1.33
2022-10-26T08:10:52.765Z,1.20
2022-10-26T08:11:55.595Z,1.50
2022-10-26T08:12:58.438Z,0.98
2022-10-26T08:14:00.263Z,1.30
2022-10-26T08:15:03.906Z,1.00
2022-10-26T08:16:08.020Z,1.33
2022-10-26T08:17:10.159Z,1.40
2022-10-26T08:18:14.533Z,1.42
2022-10-26T08:19:16.466Z,1.40
2022-10-26T08:20:19.291Z,1.23
2022-10-26T08:21:36.328Z,1.65
2022-10-26T08:22:42.527Z,1.30
2022-10-26T08:23:45.645Z,1.17
2022-10-26T08:24:47.507Z,1.55
2022-10-26T08:25:50.308Z,2.28
2022-10-26T08:26:53.205Z,1.50
2022-10-26T08:27:55.191Z,1.20
2022-10-26T08:28:57.974Z,1.52
2022-10-26T08:30:00.723Z,1.50
2022-10-26T08:31:04.328Z,2.38
2022-10-26T08:32:07.430Z,2.28
2022-10-26T08:33:12.165Z,2.05
2022-10-26T08:34:16.495Z,2.65
2022-10-26T08:35:19.291Z,2.00
2022-10-26T08:36:25.546Z,2.65
2022-10-26T08:37:28.361Z,2.13
2022-10-26T08:38:30.729Z,2.28
2022-10-26T08:39:33.751Z,2.35
2022-10-26T08:40:40.303Z,2.10
2022-10-26T08:41:43.752Z,2.55
2022-10-26T08:42:50.486Z,2.05
2022-10-26T08:43:57.907Z,2.50
2022-10-26T08:45:04.645Z,2.33
2022-10-26T08:46:12.832Z,2.30
2022-10-26T08:47:20.075Z,2.03
2022-10-26T08:48:27.861Z,2.67
2022-10-26T08:49:38.704Z,2.10
2022-10-26T08:50:47.259Z,2.40
2022-10-26T08:51:53.633Z,2.20
2022-10-26T08:53:03.793Z,1.80
2022-10-26T08:54:14.502Z,1.60
2022-10-26T08:55:20.009Z,2.65
2022-10-26T08:56:26.724Z,2.05
2022-10-26T08:57:36.626Z,1.95
2022-10-26T08:58:44.316Z,1.70
2022-10-26T08:59:53.068Z,1.08
2022-10-26T09:00:56.032Z,2.00
2022-10-26T09:01:58.200Z,1.48
2022-10-26T09:03:01.111Z,1.90
2022-10-26T09:04:04.207Z,1.75
2022-10-26T09:05:16.336Z,1.83
2022-10-26T09:06:24.073Z,1.50
2022-10-26T09:07:46.471Z,1.30
2022-10-26T09:08:59.851Z,1.30
2022-10-26T09:10:12.943Z,1.20
2022-10-26T09:11:28.576Z,1.15
2022-10-26T09:12:44.611Z,1.65
2022-10-26T09:13:59.884Z,1.10
2022-10-26T09:15:14.082Z,1.30
2022-10-26T09:16:29.300Z,1.05
2022-10-26T09:17:43.941Z,1.25
2022-10-26T09:18:58.963Z,1.33
2022-10-26T09:20:20.369Z,3.05
2022-10-26T09:21:37.003Z,0.93
2022-10-26T09:22:47.616Z,1.10
2022-10-26T09:23:57.401Z,1.25
2022-10-26T09:25:09.733Z,1.60
2022-10-26T09:26:27.682Z,0.90
2022-10-26T09:27:33.773Z,1.17
2022-10-26T09:28:38.831Z,1.17
2022-10-26T09:29:42.421Z,1.20
2022-10-26T09:30:46.945Z,1.20
2022-10-26T09:31:50.947Z,1.02
2022-10-26T09:32:57.552Z,1.67
2022-10-26T09:34:03.208Z,0.85
2022-10-26T09:35:16.560Z,0.98
2022-10-26T09:36:20.926Z,1.00
2022-10-26T09:37:27.607Z,1.20
2022-10-26T09:38:31.406Z,1.10
2022-10-26T09:39:40.700Z,1.30
2022-10-26T09:40:48.347Z,1.30
2022-10-26T09:41:58.540Z,1.10
2022-10-26T09:43:06.361Z,1.00
2022-10-26T09:44:18.673Z,1.10
2022-10-26T09:45:25.559Z,1.25
2022-10-26T09:46:31.913Z,1.00
2022-10-26T09:47:39.062Z,1.05
2022-10-26T09:48:48.003Z,1.20
2022-10-26T09:49:56.090Z,1.98
2022-10-26T09:51:03.728Z,1.15
2022-10-26T09:52:07.980Z,1.73
2022-10-26T09:53:11.023Z,1.27
2022-10-26T09:54:17.259Z,1.88
2022-10-26T09:55:20.886Z,0.85
2022-10-26T09:56:24.608Z,1.42
2022-10-26T09:57:26.864Z,1.40
2022-10-26T09:58:32.719Z,1.10
2022-10-26T09:59:40.354Z,1.48
2022-10-26T10:00:45.761Z,1.20
2022-10-26T10:01:49.077Z,1.30
2022-10-26T10:02:56.854Z,0.98
2022-10-26T10:04:20.192Z,1.25
2022-10-26T10:05:50.284Z,1.10
2022-10-26T10:07:14.304Z,1.65
2022-10-26T10:08:22.841Z,1.02
2022-10-26T10:09:24.854Z,0.82
2022-10-26T10:10:27.865Z,1.50
2022-10-26T10:11:39.988Z,1.30
2022-10-26T10:12:42.890Z,1.15
2022-10-26T10:13:47.224Z,1.25
2022-10-26T10:14:57.243Z,1.42
2022-10-26T10:16:06.394Z,1.25
2022-10-26T10:17:19.714Z,1.30
2022-10-26T10:18:24.105Z,1.17
2022-10-26T10:19:28.720Z,1.23
2022-10-26T10:20:32.624Z,1.10
2022-10-26T10:21:37.941Z,1.20
2022-10-26T10:22:55.097Z,1.33
2022-10-26T10:23:58.394Z,1.40
2022-10-26T10:25:02.358Z,1.63
2022-10-26T10:26:08.564Z,1.40
2022-10-26T10:27:18.998Z,1.15
2022-10-26T10:28:22.501Z,1.52
2022-10-26T10:29:27.175Z,1.10
2022-10-26T10:30:32.361Z,1.50
2022-10-26T10:31:34.236Z,1.35
2022-10-26T10:32:40.577Z,1.00
2022-10-26T10:33:45.325Z,1.17
2022-10-26T10:34:48.800Z,2.05
2022-10-26T10:35:52.562Z,1.50
2022-10-26T10:36:55.941Z,1.77
2022-10-26T10:37:59.558Z,1.48
2022-10-26T10:39:03.238Z,1.10
2022-10-26T10:40:09.059Z,1.60
2022-10-26T10:41:21.656Z,1.00
2022-10-26T10:42:30.787Z,1.42
2022-10-26T10:43:33.172Z,1.20
2022-10-26T10:44:36.330Z,1.10
2022-10-26T10:45:38.533Z,1.23
2022-10-26T10:46:41.423Z,1.02
2022-10-26T10:47:59.472Z,1.33
2022-10-26T10:49:04.760Z,1.45
2022-10-26T10:50:17.247Z,1.30
2022-10-26T10:51:23.362Z,1.52
2022-10-26T10:52:27.449Z,1.90
2022-10-26T10:53:37.574Z,1.13
2022-10-26T10:54:40.063Z,2.45
2022-10-26T10:56:56.471Z,1.50
2022-10-26T10:58:16.191Z,1.55
2022-10-26T10:59:38.773Z,1.40
2022-10-26T11:00:45.442Z,1.77
2022-10-26T11:01:52.701Z,1.30
2022-10-26T11:03:16.599Z,1.30
2022-10-26T11:04:35.492Z,1.70
2022-10-26T11:05:56.754Z,1.10
2022-10-26T11:07:02.190Z,1.10
2022-10-26T11:08:08.973Z,1.38
2022-10-26T11:09:16.541Z,1.33
2022-10-26T11:10:22.330Z,1.90
2022-10-26T11:11:29.780Z,1.70
2022-10-26T11:13:51.605Z,1.30
2022-10-26T11:14:58.238Z,1.10
2022-10-26T11:16:04.286Z,1.13
2022-10-26T11:17:14.444Z,1.35
2022-10-26T11:18:21.454Z,1.75
2022-10-26T11:19:30.323Z,1.60
2022-10-26T11:20:35.431Z,1.40
2022-10-26T11:21:38.813Z,1.30
2022-10-26T11:22:47.121Z,1.42
2022-10-26T11:23:53.530Z,1.98
2022-10-26T11:25:04.445Z,1.73
2022-10-26T11:26:12.651Z,2.00
2022-10-26T11:27:18.324Z,1.75
2022-10-26T11:28:29.221Z,1.50
2022-10-26T11:29:41.627Z,1.70
2022-10-26T11:30:49.945Z,1.90
2022-10-26T11:31:59.531Z,1.85
2022-10-26T11:33:06.634Z,1.77
2022-10-26T11:34:19.781Z,1.90
2022-10-26T11:35:27.326Z,2.28
2022-10-26T11:36:33.488Z,2.30
2022-10-26T11:37:45.333Z,1.75
2022-10-26T11:38:57.290Z,1.65
2022-10-26T11:40:17.252Z,2.08
2022-10-26T11:41:26.364Z,2.22
2022-10-26T11:42:36.884Z,2.22
2022-10-26T11:43:41.524Z,2.25
2022-10-26T11:44:52.854Z,1.90
2022-10-26T11:46:03.408Z,2.05
2022-10-26T11:47:14.584Z,1.63
2022-10-26T11:48:24.314Z,2.33
2022-10-26T11:49:32.852Z,1.90
2022-10-26T11:50:41.153Z,1.83
2022-10-26T11:51:47.947Z,1.80
2022-10-26T11:52:55.015Z,2.05
2022-10-26T11:53:59.177Z,1.85
2022-10-26T11:55:04.598Z,2.22
2022-10-26T11:56:15.372Z,1.90
2022-10-26T11:57:17.227Z,2.05
2022-10-26T11:58:20.277Z,1.40
2022-10-26T11:59:26.913Z,2.17
2022-10-26T12:00:33.991Z,3.50
2022-10-26T12:01:37.056Z,2.20
2022-10-26T12:03:53.577Z,1.80
2022-10-26T12:05:02.782Z,2.13
2022-10-26T12:06:05.918Z,2.30
2022-10-26T12:07:15.201Z,1.27
2022-10-26T12:08:24.590Z,3.55
2022-10-26T12:09:33.473Z,2.08
2022-10-26T12:10:42.832Z,1.90
2022-10-26T12:11:49.849Z,2.05
2022-10-26T12:13:01.003Z,2.00
2022-10-26T12:14:14.492Z,2.00
2022-10-26T12:15:35.100Z,1.70
2022-10-26T12:16:55.505Z,1.65
2022-10-26T12:18:07.592Z,1.70
2022-10-26T12:19:19.537Z,2.50
2022-10-26T12:20:53.384Z,2.38
2022-10-26T12:21:56.762Z,1.45
2022-10-26T12:22:58.977Z,1.52
2022-10-26T12:24:03.334Z,1.75
2022-10-26T12:25:18.704Z,2.08
2022-10-26T12:26:53.927Z,1.67
2022-10-26T12:27:58.365Z,1.65
2022-10-26T12:29:36.738Z,1.52
2022-10-26T12:30:39.942Z,1.83
2022-10-26T12:31:43.634Z,2.05
2022-10-26T12:32:56.587Z,2.25
2022-10-26T12:33:59.214Z,2.10
2022-10-26T12:35:04.103Z,1.40
2022-10-26T12:36:42.978Z,1.98
2022-10-26T12:37:44.871Z,1.33
2022-10-26T12:39:02.381Z,1.85
2022-10-26T12:40:40.611Z,2.05
2022-10-26T12:41:58.771Z,1.50
2022-10-26T12:43:36.022Z,2.28
2022-10-26T12:45:03.468Z,2.15
2022-10-26T12:46:41.559Z,1.52
2022-10-26T12:48:10.697Z,1.60
2022-10-26T12:49:57.144Z,1.65
2022-10-26T12:51:21.481Z,1.73
2022-10-26T12:52:29.931Z,1.50
2022-10-26T12:53:43.958Z,1.70
2022-10-26T12:55:13.342Z,2.30
2022-10-26T12:56:21.126Z,2.05
2022-10-26T12:57:30.890Z,2.63
2022-10-26T12:58:52.132Z,1.35
2022-10-26T13:00:05.095Z,2.17
2022-10-26T13:01:44.624Z,1.88
2022-10-26T13:03:02.205Z,1.70
2022-10-26T13:04:15.153Z,2.25
2022-10-26T13:05:34.899Z,2.00
2022-10-26T13:06:48.124Z,2.08
2022-10-26T13:07:51.921Z,1.50
2022-10-26T13:08:58.655Z,1.80
2022-10-26T13:10:06.893Z,2.30
2022-10-26T13:11:17.432Z,2.53
2022-10-26T13:12:20.610Z,2.72
2022-10-26T13:13:25.393Z,2.20
2022-10-26T13:14:31.750Z,2.33
2022-10-26T13:15:39.685Z,1.90
2022-10-26T13:16:45.754Z,1.60
2022-10-26T13:17:57.810Z,1.98
2022-10-26T13:19:02.123Z,2.10
2022-10-26T13:20:05.842Z,1.70
2022-10-26T13:21:11.971Z,2.20
2022-10-26T13:22:17.190Z,1.75
2022-10-26T13:23:25.596Z,2.35
2022-10-26T13:24:31.534Z,1.60
2022-10-26T13:25:34.384Z,2.00
2022-10-26T13:27:24.022Z,2.22
2022-10-26T13:28:45.307Z,1.50
2022-10-26T13:30:21.646Z,1.80
2022-10-26T13:32:00.984Z,2.35
2022-10-26T13:33:03.861Z,1.92
2022-10-26T13:35:25.893Z,1.92
2022-10-26T13:36:34.093Z,1.73
2022-10-26T13:37:37.693Z,2.70
2022-10-26T13:38:40.693Z,1.40
2022-10-26T13:39:45.704Z,2.00
2022-10-26T13:40:49.857Z,2.20
2022-10-26T13:41:54.462Z,1.48
2022-10-26T13:42:59.333Z,2.30
2022-10-26T13:44:08.102Z,2.10
2022-10-26T13:45:15.114Z,2.20
2022-10-26T13:46:28.399Z,2.28
2022-10-26T13:47:41.193Z,1.60
2022-10-26T13:48:47.196Z,1.88
2022-10-26T13:49:53.405Z,1.73
2022-10-26T13:50:58.847Z,1.98
2022-10-26T13:52:04.949Z,2.50
2022-10-26T13:53:14.934Z,1.70
2022-10-26T13:54:24.857Z,2.70
2022-10-26T13:55:29.551Z,2.28
2022-10-26T13:56:35.269Z,1.30
2022-10-26T13:57:41.375Z,2.00
2022-10-26T13:58:49.964Z,2.40
2022-10-26T13:59:58.934Z,2.45
2022-10-26T14:01:18.104Z,1.90
2022-10-26T14:02:25.938Z,2.00
2022-10-26T14:03:28.438Z,2.47
2022-10-26T14:04:34.479Z,2.33
2022-10-26T14:05:49.887Z,1.42
2022-10-26T14:06:54.200Z,2.13
2022-10-26T14:07:59.276Z,2.15
2022-10-26T14:09:16.905Z,3.67
2022-10-26T14:10:49.654Z,3.80
2022-10-26T14:12:00.883Z,2.50
2022-10-26T14:13:08.781Z,2.42
2022-10-26T14:14:19.032Z,2.40
2022-10-26T14:15:35.332Z,2.45
2022-10-26T14:16:39.919Z,1.95
2022-10-26T14:17:42.810Z,2.22
2022-10-26T14:18:45.637Z,1.60
2022-10-26T14:19:50.399Z,1.83
2022-10-26T14:20:59.369Z,2.67
2022-10-26T14:22:02.730Z,2.10
2022-10-26T14:23:05.622Z,2.60
2022-10-26T14:24:35.768Z,2.25
2022-10-26T14:25:58.752Z,1.75
2022-10-26T14:27:03.223Z,1.60
2022-10-26T14:28:21.292Z,2.50
2022-10-26T14:29:26.648Z,1.40
2022-10-26T14:30:32.142Z,1.98
2022-10-26T14:31:35.778Z,1.85
2022-10-26T14:32:38.595Z,1.60
2022-10-26T14:33:40.545Z,1.85
2022-10-26T14:34:43.330Z,1.40
2022-10-26T14:35:45.789Z,2.05
2022-10-26T14:36:52.234Z,2.30
2022-10-26T14:37:58.236Z,2.20
2022-10-26T14:39:06.179Z,2.22
2022-10-26T14:40:16.381Z,2.50
2022-10-26T14:41:19.799Z,2.03
2022-10-26T14:42:26.943Z,2.03
2022-10-26T14:43:32.447Z,2.13
2022-10-26T14:44:38.231Z,2.15
2022-10-26T14:45:49.474Z,2.03
2022-10-26T14:46:54.452Z,2.05
2022-10-26T14:47:57.080Z,2.40
2022-10-26T14:49:02.108Z,2.78
2022-10-26T14:50:04.555Z,2.17
2022-10-26T14:51:11.810Z,2.25
2022-10-26T14:52:24.090Z,2.05
2022-10-26T14:53:33.714Z,2.72
2022-10-26T14:54:36.780Z,1.92
2022-10-26T14:55:48.890Z,1.65
2022-10-26T14:56:52.451Z,2.00
2022-10-26T14:58:08.248Z,1.70
2022-10-26T14:59:13.264Z,2.35
2022-10-26T15:00:17.667Z,2.10
2022-10-26T15:01:35.989Z,2.63
2022-10-26T15:02:38.828Z,1.60
2022-10-26T15:03:42.916Z,1.50
2022-10-26T15:04:59.313Z,2.20
2022-10-26T15:06:22.549Z,2.42